Latest Weather Observations for Alva Beach

IDQ60801

Issued at 7:22 am EST Monday 22 April 2024 (issued every 10 minutes, with the page automatically refreshed every 10 minutes)

About weather observations | Map of weather stations | Latest weather observations for QLD | Other Formats
Station Details ID: 033295 Name: ALVA BEACH Lat: -19.46 Lon: 147.48 Height: 7.5 m
Data from the previous 72 hours. | See also: Recent months at Alva Beach
Date/Time
EST
Temp
°C
App
Temp
°C
Dew
Point
°C
Rel
Hum
%
Delta-T
°C
Wind Press
QNH
hPa
Press
MSL
hPa
Rain since
9am
mm
Dir  Spd
km/h
Gust
km/h
Spd
kts
Gust
kts
22/07:00am 17.0 16.4 14.6 86 1.4 SW 11 17 6 9 1015.1 1015.1 0.2
22/06:30am 16.4 15.7 14.4 88 1.1 SW 11 15 6 8 1014.8 1014.8 0.2
22/06:00am 16.8 16.1 14.4 86 1.4 SW 11 17 6 9 1014.4 1014.4 0.2
22/05:30am 17.0 15.9 14.3 84 1.5 SW 13 20 7 11 1014.0 1014.0 0.2
22/05:00am 17.2 15.8 14.5 84 1.6 SW 15 20 8 11 1013.6 1013.6 0.2
22/04:30am 17.3 17.1 14.6 84 1.6 WSW 9 15 5 8 1013.5 1013.5 0.2
22/04:00am 18.3 17.8 14.8 80 2.0 SW 11 15 6 8 1013.5 1013.5 0.2
22/03:30am 18.7 18.5 14.8 78 2.3 SW 9 15 5 8 1013.7 1013.7 0.2
22/03:00am 18.9 18.4 15.0 78 2.3 SSW 11 19 6 10 1013.6 1013.6 0.2
22/02:30am 19.3 19.3 15.2 77 2.4 S 9 17 5 9 1013.8 1013.8 0.2
22/02:00am 19.6 19.0 15.7 78 2.3 S 13 20 7 11 1014.0 1014.0 0.2
22/01:30am 20.2 20.3 16.6 80 2.2 S 11 17 6 9 1014.4 1014.4 0.2
22/01:00am 20.4 21.8 18.7 90 1.1 S 9 15 5 8 1014.5 1014.5 0.2
22/12:30am 20.8 22.6 19.5 92 0.8 SSW 9 15 5 8 1014.7 1014.7 0.2
22/12:00am 21.1 23.4 19.9 93 0.8 SSW 7 9 4 5 1014.7 1014.7 0.2
 
Date/Time
EST
Temp
°C
App
Temp
°C
Dew
Point
°C
Rel
Hum
%
Delta-T
°C
Wind Press
QNH
hPa
Press
MSL
hPa
Rain since
9am
mm
Dir  Spd
km/h
Gust
km/h
Spd
kts
Gust
kts
21/11:30pm 21.4 23.9 20.2 93 0.8 S 7 11 4 6 1014.8 1014.8 0.2
21/11:00pm 21.2 23.5 19.8 92 0.9 SSW 7 9 4 5 1015.0 1015.0 0.2
21/10:30pm 21.8 24.3 20.3 91 1.0 SSW 7 11 4 6 1015.0 1015.0 0.2
21/10:00pm 22.4 24.6 20.3 88 1.4 SSW 9 11 5 6 1015.1 1015.1 0.2
21/09:30pm 23.6 25.8 20.5 83 2.0 SSW 9 13 5 7 1015.2 1015.2 0.2
21/09:00pm 25.5 27.1 21.4 78 2.7 SE 15 24 8 13 1014.8 1014.8 0.2
21/08:30pm 25.5 27.4 21.4 78 2.7 ESE 13 22 7 12 1014.4 1014.4 0.2
21/08:00pm 25.7 27.3 21.4 77 2.8 ESE 15 22 8 12 1014.1 1014.1 0.2
21/07:30pm 25.2 27.4 21.1 78 2.7 E 11 17 6 9 1013.7 1013.7 0.2
21/07:00pm 25.1 27.5 21.6 81 2.3 E 11 17 6 9 1013.4 1013.4 0.2
21/06:30pm 25.0 27.2 21.1 79 2.6 E 11 15 6 8 1013.0 1013.0 0.2
21/06:00pm 24.9 27.3 20.8 78 2.7 E 9 13 5 7 1012.8 1012.8 0.2
21/05:30pm 25.3 27.7 20.8 76 3.0 E 9 11 5 6 1012.6 1012.6 0.2
21/05:00pm 25.4 27.7 20.6 75 3.1 E 9 13 5 7 1012.3 1012.3 0.2
21/04:30pm 26.1 28.3 21.1 74 3.3 E 11 17 6 9 1012.0 1012.0 0.2
21/04:00pm 25.7 27.3 20.7 74 3.3 E 13 19 7 10 1012.0 1012.0 0.2
21/03:30pm 26.2 28.3 21.0 73 3.4 E 11 17 6 9 1012.0 1012.0 0.2
21/03:00pm 26.8 29.0 21.1 71 3.8 E 11 17 6 9 1012.0 1012.0 0.2
21/02:30pm 25.9 27.8 20.5 72 3.5 E 11 19 6 10 1012.0 1012.0 0.2
21/02:00pm 25.8 27.6 21.2 76 3.0 E 13 22 7 12 1012.2 1012.2 0.2
21/01:30pm 26.1 27.8 20.9 73 3.4 E 13 20 7 11 1012.5 1012.5 0.2
21/01:00pm 26.3 27.3 20.2 69 4.0 E 15 20 8 11 1012.6 1012.6 0.2
21/12:30pm 26.0 26.9 20.1 70 3.8 E 15 20 8 11 1012.9 1012.9 0.2
21/12:00pm 25.9 26.6 20.5 72 3.5 ESE 17 24 9 13 1013.2 1013.2 0.2
21/11:30am 25.6 26.2 19.5 69 3.9 ESE 15 24 8 13 1013.4 1013.4 0.2
21/11:00am 25.9 27.2 20.2 71 3.7 SE 13 22 7 12 1013.8 1013.8 0.2
21/10:30am 25.3 26.9 19.9 72 3.5 SSE 11 20 6 11 1014.2 1014.2 0.2
21/10:00am 24.5 26.0 19.8 75 3.0 S 11 20 6 11 1014.3 1014.3 0.2
21/09:30am 22.8 23.3 18.3 76 2.8 SSW 13 20 7 11 1014.5 1014.5 0.2
21/09:00am 22.4 22.9 18.4 78 2.5 SSW 13 22 7 12 1014.5 1014.5 2.6
21/08:30am 21.4 21.4 18.0 81 2.1 SSW 15 24 8 13 1014.2 1014.2 2.6
21/08:00am 19.9 19.9 17.3 85 1.6 SSW 13 22 7 12 1014.2 1014.2 2.6
21/07:30am 19.5 19.6 17.5 88 1.2 SSW 13 26 7 14 1014.3 1014.3 2.6
21/07:00am 19.2 19.2 17.3 89 1.2 SSW 13 24 7 13 1014.0 1014.0 2.6
21/06:30am 19.3 19.6 17.8 91 0.9 SSW 13 22 7 12 1013.7 1013.7 2.6
21/06:00am 19.5 20.3 18.2 92 0.8 SSW 11 19 6 10 1013.4 1013.4 2.6
21/05:30am 19.4 20.2 18.1 92 0.8 SSW 11 22 6 12 1013.1 1013.1 2.6
21/05:00am 19.7 21.1 18.7 94 0.6 SSW 9 15 5 8 1012.6 1012.6 2.6
21/04:30am 19.9 20.8 19.2 96 0.4 S 13 22 7 12 1012.2 1012.2 2.6
21/04:00am 19.8 20.7 19.3 97 0.3 SSW 13 20 7 11 1012.0 1012.0 2.6
21/03:30am 20.0 20.6 19.5 97 0.3 SSW 15 26 8 14 1012.1 1012.1 2.6
21/03:00am 20.4 21.2 19.9 97 0.3 SSW 15 32 8 17 1012.1 1012.1 2.6
21/02:30am 21.0 22.5 20.5 97 0.3 SSW 13 24 7 13 1011.9 1011.9 2.6
21/02:00am 22.2 24.3 21.7 97 0.3 SSW 13 22 7 12 1012.0 1012.0 2.0
21/01:30am 22.6 24.8 21.9 96 0.5 SSW 13 24 7 13 1012.1 1012.1 0.6
21/01:00am 23.5 26.6 22.8 96 0.5 SSW 11 20 6 11 1012.2 1012.2 0.4
21/12:30am 23.5 27.3 22.8 96 0.5 SSW 7 13 4 7 1012.3 1012.3 0.4
21/12:00am 23.8 27.7 23.0 95 0.5 SW 7 9 4 5 1012.4 1012.4 0.4
 
Date/Time
EST
Temp
°C
App
Temp
°C
Dew
Point
°C
Rel
Hum
%
Delta-T
°C
Wind Press
QNH
hPa
Press
MSL
hPa
Rain since
9am
mm
Dir  Spd
km/h
Gust
km/h
Spd
kts
Gust
kts
20/11:30pm 24.9 30.0 23.3 91 1.1 SW 2 7 1 4 1012.6 1012.6 0.4
20/11:00pm 26.6 30.6 23.7 84 2.0 E 9 15 5 8 1012.6 1012.6 0.0
20/10:30pm 26.6 30.7 23.9 85 1.9 E 9 15 5 8 1012.7 1012.7 0.0
20/10:00pm 26.7 29.8 23.6 83 2.1 E 13 17 7 9 1012.9 1012.9 0.0
20/09:30pm 26.8 30.5 23.9 84 2.0 E 11 17 6 9 1012.7 1012.7 0.0
20/09:00pm 26.8 29.9 24.1 85 1.9 ENE 15 19 8 10 1012.4 1012.4 0.0
20/08:30pm 26.9 29.2 23.4 81 2.4 ENE 17 20 9 11 1012.3 1012.3 0.0
20/08:00pm 26.8 29.6 23.7 83 2.1 ENE 15 17 8 9 1012.2 1012.2 0.0
20/07:30pm 26.9 29.8 23.8 83 2.1 ENE 15 20 8 11 1011.9 1011.9 0.0
20/07:00pm 26.9 29.3 23.6 82 2.3 ENE 17 20 9 11 1011.6 1011.6 0.0
20/06:30pm 27.0 29.3 23.5 81 2.4 ENE 17 20 9 11 1011.1 1011.1 0.0
20/06:00pm 27.1 28.8 23.1 79 2.7 ENE 19 22 10 12 1010.7 1010.7 0.0
20/05:30pm 27.3 30.5 23.7 81 2.5 ENE 13 19 7 10 1010.8 1010.8 0.0
20/05:00pm 27.7 30.2 23.1 76 3.1 ENE 15 20 8 11 1010.6 1010.6 0.0
20/04:30pm 28.2 30.4 23.3 75 3.4 ENE 17 22 9 12 1010.4 1010.4 0.0
20/04:00pm 28.5 30.7 23.2 73 3.6 ENE 17 22 9 12 1010.3 1010.3 0.0
20/03:30pm 28.8 30.4 22.8 70 4.1 ENE 19 26 10 14 1010.2 1010.2 0.0
20/03:00pm 29.3 31.6 22.8 68 4.4 E 15 24 8 13 1010.2 1010.2 0.0
20/02:30pm 29.4 32.3 23.1 69 4.3 E 13 19 7 10 1010.4 1010.4 0.0
20/02:00pm 29.1 31.3 22.6 68 4.4 E 15 20 8 11 1010.6 1010.6 0.0
20/01:30pm 29.6 32.6 23.3 69 4.3 ESE 13 20 7 11 1011.1 1011.1 0.0
20/01:00pm 29.6 32.3 23.5 69 4.2 ESE 15 22 8 12 1011.6 1011.6 0.0
20/12:30pm 29.2 31.5 23.4 71 4.0 ESE 17 24 9 13 1012.0 1012.0 0.0
20/12:00pm 29.7 32.5 23.6 69 4.2 ESE 15 22 8 12 1012.4 1012.4 0.0
20/11:30am 29.2 31.6 22.9 69 4.3 ESE 15 22 8 12 1012.7 1012.7 0.0
20/11:00am 29.0 31.5 22.5 68 4.4 ESE 13 22 7 12 1013.1 1013.1 0.0
20/10:30am 29.3 32.0 22.8 68 4.4 ESE 13 24 7 13 1013.2 1013.2 0.0
20/10:00am 28.2 30.9 22.9 73 3.6 SE 13 20 7 11 1013.6 1013.6 0.0
20/09:30am 28.6 31.8 23.1 72 3.8 SE 11 19 6 10 1013.5 1013.5 0.0
20/09:00am 27.1 30.5 22.7 77 3.0 ESE 9 15 5 8 1013.4 1013.4 0.2
20/08:30am 26.3 29.5 22.4 79 2.6 S 9 17 5 9 1013.3 1013.3 0.2
20/08:00am 25.4 28.7 22.5 84 2.0 S 9 19 5 10 1013.4 1013.4 0.2
20/07:30am 24.2 27.3 22.1 88 1.4 S 9 11 5 6 1012.9 1012.9 0.2
20/07:00am 23.0 25.8 21.6 92 0.9 SSW 9 13 5 7 1012.9 1012.9 0.2
20/06:30am 22.5 25.0 21.1 92 0.9 SSW 9 15 5 8 1012.3 1012.3 0.2
20/06:00am 22.7 25.4 21.3 92 0.9 S 9 15 5 8 1012.0 1012.0 0.2
20/05:30am 22.6 25.1 21.1 91 1.0 SSW 9 13 5 7 1011.8 1011.8 0.2
20/05:00am 22.7 25.4 21.3 92 0.9 SSW 9 11 5 6 1011.5 1011.5 0.2
20/04:30am 22.9 25.5 21.2 90 1.1 SSW 9 13 5 7 1011.4 1011.4 0.2
20/04:00am 23.1 26.2 21.4 90 1.1 SSW 7 9 4 5 1011.4 1011.4 0.2
20/03:30am 23.2 26.2 21.3 89 1.2 SSW 7 9 4 5 1011.4 1011.4 0.2
20/03:00am 23.4 26.4 21.3 88 1.4 SW 7 13 4 7 1011.4 1011.4 0.2
20/02:30am 24.1 26.9 21.6 86 1.7 SSW 9 13 5 7 1011.4 1011.4 0.2
20/02:00am 25.9 29.7 23.4 86 1.7 SE 9 15 5 8 1011.5 1011.5 0.2
20/01:30am 26.2 28.8 23.3 84 2.0 ESE 15 20 8 11 1011.6 1011.6 0.2
20/01:00am 26.3 29.3 23.4 84 2.0 ESE 13 20 7 11 1011.9 1011.9 0.2
20/12:30am 26.4 28.5 23.1 82 2.2 E 17 28 9 15 1011.9 1011.9 0.2
20/12:00am 26.5 28.9 23.0 81 2.4 E 15 22 8 12 1012.1 1012.1 0.2
 
Date/Time
EST
Temp
°C
App
Temp
°C
Dew
Point
°C
Rel
Hum
%
Delta-T
°C
Wind Press
QNH
hPa
Press
MSL
hPa
Rain since
9am
mm
Dir  Spd
km/h
Gust
km/h
Spd
kts
Gust
kts
19/11:30pm 26.7 28.7 23.0 80 2.5 E 17 22 9 12 1012.5 1012.5 0.2
19/11:00pm 26.8 29.0 22.6 78 2.8 E 15 22 8 12 1012.8 1012.8 0.2
19/10:30pm 26.8 29.1 22.8 79 2.7 E 15 24 8 13 1012.9 1012.9 0.2
19/10:00pm 26.9 28.7 22.5 77 3.0 E 17 24 9 13 1013.1 1013.1 0.2
19/09:30pm 27.1 29.1 22.9 78 2.9 E 17 22 9 12 1013.3 1013.3 0.2
19/09:00pm 27.1 29.1 22.9 78 2.9 E 17 26 9 14 1013.4 1013.4 0.2
19/08:30pm 27.0 29.3 22.8 78 2.8 E 15 24 8 13 1013.1 1013.1 0.2
19/08:00pm 27.1 29.6 23.8 82 2.3 E 17 26 9 14 1012.6 1012.6 0.2
19/07:30pm 27.1 28.8 23.1 79 2.7 E 19 26 10 14 1012.5 1012.5 0.2
19/07:00pm 27.1 28.7 22.9 78 2.9 E 19 26 10 14 1012.3 1012.3 0.2
19/06:30pm 27.1 29.0 22.7 77 3.0 E 17 22 9 12 1012.0 1012.0 0.2
19/06:00pm 27.0 29.2 22.6 77 3.0 E 15 20 8 11 1011.9 1011.9 0.2
19/05:30pm 27.1 29.5 22.9 78 2.9 E 15 22 8 12 1011.5 1011.5 0.2
19/05:00pm 27.5 29.6 23.1 77 3.0 E 17 22 9 12 1011.3 1011.3 0.2
19/04:30pm 28.0 30.8 23.6 77 3.0 E 15 20 8 11 1011.0 1011.0 0.2
19/04:00pm 28.4 31.7 23.8 76 3.2 E 13 17 7 9 1010.9 1010.9 0.2
19/03:30pm 28.7 31.4 22.9 71 4.0 E 13 24 7 13 1010.6 1010.6 0.2
19/03:00pm 28.7 31.6 23.8 75 3.4 E 15 22 8 12 1010.6 1010.6 0.2
19/02:30pm 29.1 31.7 23.3 71 4.0 ESE 15 20 8 11 1010.9 1010.9 0.2
19/02:00pm 28.5 31.2 23.4 74 3.5 ESE 15 24 8 13 1011.3 1011.3 0.2
19/01:30pm 27.7 30.3 23.3 77 3.0 ESE 15 26 8 14 1011.5 1011.5 0.2
19/01:00pm 28.1 30.8 23.5 76 3.2 ESE 15 26 8 14 1011.6 1011.6 0.2
19/12:30pm 27.4 29.9 23.2 78 2.9 SE 15 24 8 13 1012.0 1012.0 0.2
19/12:00pm 27.8 30.9 23.6 78 2.9 ESE 13 24 7 13 1012.4 1012.4 0.2
19/11:30am 27.3 29.9 23.3 79 2.7 ESE 15 20 8 11 1013.0 1013.0 0.2
19/11:00am 27.7 30.2 23.1 76 3.1 ESE 15 22 8 12 1013.5 1013.5 0.2
19/10:30am 27.4 30.1 23.4 79 2.7 ESE 15 22 8 12 1013.6 1013.6 0.2
19/10:00am 27.0 30.1 23.5 81 2.4 ESE 13 19 7 10 1013.7 1013.7 0.0
19/09:30am 27.4 30.9 23.6 80 2.6 SE 11 19 6 10 1013.7 1013.7 0.0
19/09:00am 27.2 31.3 23.9 82 2.3 SE 9 17 5 9 1013.3 1013.3 0.6
19/08:30am 26.2 30.8 24.2 89 1.4 SSE 7 13 4 7 1013.1 1013.1 0.6
19/08:00am 24.2 27.7 22.8 92 0.9 S 9 15 5 8 1013.0 1013.0 0.6
19/07:30am 23.2 26.8 22.4 95 0.5 S 7 13 4 7 1012.9 1012.9 0.6

Other formats

Comma delimited format used in spreadsheet applications
http://www.bom.gov.au/fwo/IDQ60801/IDQ60801.95296.axf

JavaScript Object Notation format (JSON) in row-major order
http://www.bom.gov.au/fwo/IDQ60801/IDQ60801.95296.json

Data quality

Most of these data are generated automatically and are frequently updated. Quality checks on data are not normally performed. It is possible for incorrect values to appear. Refer to information at About Latest Weather Observations and please check the disclaimer before using these data.